Time;durP1;ratioP1;P1;durP2;ratioP2;P2;SDS_P1;SDS_P2;PMS_P1;PMS_P2;Temp;Humidity;BMP_temperature;BMP_pressure;BME280_temperature;BME280_humidity;BME280_pressure;Samples;Min_cycle;Max_cycle;Signal;HPM_P1;HPM_P2
2023/09/10 00:02:15;;;;;;;4.17;3.97;;;;;;;20.87;95.01;95687.44;4402186;32;20185;-66
2023/09/10 00:04:41;;;;;;;4.77;4.47;;;;;;;20.82;94.88;95671.53;4403079;32;20255;-66
2023/09/10 00:07:07;;;;;;;4.47;4.27;;;;;;;20.71;95.65;95679.37;4409315;32;20192;-66
2023/09/10 00:09:33;;;;;;;5.23;4.87;;;;;;;20.72;95.84;95678.25;4404817;32;20209;-66
2023/09/10 00:11:58;;;;;;;5.23;4.93;;;;;;;20.67;96.17;95680.41;4412977;32;20188;-66
2023/09/10 00:14:23;;;;;;;4.87;4.57;;;;;;;20.67;96.88;95677.72;4403717;32;20180;-66
2023/09/10 00:16:49;;;;;;;5.03;4.63;;;;;;;20.62;96.81;95677.97;4408085;32;20184;-66
2023/09/10 00:19:15;;;;;;;4.33;4.03;;;;;;;20.58;97.30;95675.19;4414026;32;20209;-66
2023/09/10 00:21:40;;;;;;;4.93;4.63;;;;;;;20.64;96.17;95676.50;4399059;32;20195;-66
2023/09/10 00:24:08;;;;;;;4.50;4.20;;;;;;;20.66;95.94;95670.75;4404251;32;20264;-66
2023/09/10 00:26:35;;;;;;;4.10;3.80;;;;;;;20.65;95.57;95672.69;4403937;32;20206;-66
2023/09/10 00:29:00;;;;;;;5.80;5.50;;;;;;;20.59;95.99;95669.44;4405374;32;20180;-66
2023/09/10 00:31:26;;;;;;;6.43;4.93;;;;;;;20.60;96.06;95667.53;4407560;32;20237;-66
2023/09/10 00:33:51;;;;;;;4.90;4.60;;;;;;;20.61;95.20;95668.31;4401134;32;20203;-66
2023/09/10 00:36:16;;;;;;;4.90;4.53;;;;;;;20.59;95.36;95664.06;4399698;32;20184;-66
2023/09/10 00:38:41;;;;;;;5.70;4.87;;;;;;;20.53;96.24;95670.06;4405657;32;20220;-66
2023/09/10 00:41:07;;;;;;;3.87;3.73;;;;;;;20.50;96.35;95660.78;4405393;32;20232;-66
2023/09/10 00:43:34;;;;;;;4.63;4.33;;;;;;;20.50;96.40;95670.78;4410005;32;20218;-66
2023/09/10 00:45:59;;;;;;;6.97;4.13;;;;;;;20.53;96.64;95668.16;4409724;32;20265;-66
2023/09/10 00:48:25;;;;;;;4.60;4.30;;;;;;;20.45;96.71;95663.72;4403761;32;20175;-66
2023/09/10 00:50:51;;;;;;;3.87;3.67;;;;;;;20.38;97.37;95668.94;4402029;32;20196;-66
2023/09/10 00:53:19;;;;;;;5.37;4.97;;;;;;;20.37;97.62;95666.59;4404279;32;20188;-66
2023/09/10 00:55:46;;;;;;;3.77;3.63;;;;;;;20.34;97.85;95667.25;4416195;32;20217;-66
2023/09/10 00:58:12;;;;;;;4.20;3.87;;;;;;;20.37;97.64;95664.66;4396712;32;20184;-66
2023/09/10 01:00:37;;;;;;;5.73;5.27;;;;;;;20.42;97.43;95663.63;4420747;32;20199;-66
2023/09/10 01:03:05;;;;;;;4.47;4.27;;;;;;;20.30;97.90;95666.38;4398256;32;20225;-66
2023/09/10 01:05:32;;;;;;;5.40;4.93;;;;;;;20.24;98.24;95668.53;4416943;32;20244;-66
2023/09/10 01:07:58;;;;;;;4.60;4.40;;;;;;;20.22;98.38;95666.19;4418893;32;20205;-66
2023/09/10 01:10:29;;;;;;;5.00;4.70;;;;;;;20.25;97.79;95668.19;4399941;32;20180;-66
2023/09/10 01:12:59;;;;;;;3.73;3.43;;;;;;;20.24;97.98;95666.63;4417463;32;20183;-66
2023/09/10 01:15:36;;;;;;;5.20;4.90;;;;;;;20.24;96.48;95673.94;4417135;32;20190;-66
2023/09/10 01:18:21;;;;;;;3.60;3.40;;;;;;;20.26;96.77;95668.97;4406654;32;20211;-66
2023/09/10 01:21:07;;;;;;;4.93;4.60;;;;;;;20.28;96.85;95668.62;4402008;32;20202;-66
2023/09/10 01:23:45;;;;;;;6.67;5.10;;;;;;;20.24;97.10;95663.94;4400298;32;20181;-66
2023/09/10 01:26:11;;;;;;;5.37;5.07;;;;;;;20.13;97.21;95667.50;4421303;32;20305;-66
2023/09/10 01:28:36;;;;;;;4.03;3.70;;;;;;;20.17;97.57;95666.44;4407276;32;20179;-66
2023/09/10 01:31:01;;;;;;;4.13;3.93;;;;;;;20.21;97.27;95670.00;4408511;32;20191;-66
2023/09/10 01:33:34;;;;;;;4.53;4.33;;;;;;;20.14;97.36;95669.06;4416414;32;20200;-66
2023/09/10 01:36:07;;;;;;;4.87;4.63;;;;;;;20.06;98.22;95662.69;4406977;32;20275;-66
2023/09/10 01:39:06;;;;;;;4.83;4.60;;;;;;;20.09;98.20;95661.22;4416507;32;20175;-66
2023/09/10 01:41:34;;;;;;;4.27;4.07;;;;;;;20.08;98.21;95662.34;4401053;32;20177;-66
2023/09/10 01:43:59;;;;;;;3.57;3.37;;;;;;;20.14;96.92;95658.28;4409793;32;20248;-66
2023/09/10 01:46:27;;;;;;;5.20;4.73;;;;;;;20.13;96.86;95654.03;4414144;32;20199;-66
2023/09/10 01:48:52;;;;;;;4.20;3.90;;;;;;;20.08;96.94;95649.66;4402417;32;20220;-66
2023/09/10 01:51:18;;;;;;;3.90;3.70;;;;;;;20.10;96.00;95654.72;4416021;32;20224;-66
2023/09/10 01:53:43;;;;;;;18.30;3.97;;;;;;;20.12;96.24;95655.16;4406304;32;20210;-66
2023/09/10 01:56:08;;;;;;;5.30;3.83;;;;;;;20.08;96.46;95649.66;4408058;32;20182;-66
2023/09/10 01:58:34;;;;;;;3.97;3.77;;;;;;;20.10;96.42;95662.78;4409133;32;20227;-66
2023/09/10 02:00:59;;;;;;;3.40;3.20;;;;;;;20.10;96.41;95665.50;4397508;32;20263;-65
2023/09/10 02:03:24;;;;;;;4.63;4.23;;;;;;;20.06;97.03;95661.91;4406344;32;20180;-66
2023/09/10 02:05:50;;;;;;;4.30;4.00;;;;;;;20.00;97.00;95664.06;4401048;32;20209;-66
2023/09/10 02:08:15;;;;;;;3.90;3.70;;;;;;;19.96;97.34;95673.19;4395180;32;20187;-66
2023/09/10 02:10:40;;;;;;;3.90;3.70;;;;;;;19.98;97.05;95666.31;4411513;32;20196;-66
2023/09/10 02:13:07;;;;;;;3.63;3.50;;;;;;;19.98;96.48;95665.53;4401976;32;20198;-66
2023/09/10 02:15:32;;;;;;;3.97;3.77;;;;;;;19.93;96.92;95663.13;4416125;32;20239;-66
2023/09/10 02:17:58;;;;;;;3.83;3.53;;;;;;;19.98;96.69;95662.84;4411298;32;20238;-66
2023/09/10 02:20:23;;;;;;;4.53;4.13;;;;;;;19.82;97.59;95663.59;4410176;32;20211;-66
2023/09/10 02:22:48;;;;;;;3.47;3.27;;;;;;;19.87;97.10;95660.66;4398738;32;20184;-66
2023/09/10 02:25:14;;;;;;;3.70;3.50;;;;;;;19.80;97.39;95668.53;4406578;32;20275;-66
2023/09/10 02:27:39;;;;;;;3.33;3.13;;;;;;;19.82;97.12;95668.97;4409055;32;20188;-67
2023/09/10 02:30:07;;;;;;;4.07;3.87;;;;;;;19.86;96.48;95669.09;4405585;32;20184;-66
2023/09/10 02:32:32;;;;;;;4.53;4.33;;;;;;;19.89;96.44;95671.87;4407931;32;20221;-66
2023/09/10 02:34:57;;;;;;;3.80;3.60;;;;;;;19.82;96.99;95674.38;4412083;32;20268;-66
2023/09/10 02:37:24;;;;;;;4.33;3.97;;;;;;;19.81;96.95;95672.81;4406227;32;20215;-66
2023/09/10 02:39:51;;;;;;;4.13;3.80;;;;;;;19.82;96.75;95674.38;4404605;32;20193;-66
2023/09/10 02:42:17;;;;;;;4.53;4.10;;;;;;;19.82;96.39;95674.38;4412389;32;20195;-66
2023/09/10 02:44:43;;;;;;;3.73;3.43;;;;;;;19.73;97.48;95676.44;4402608;32;20198;-66
2023/09/10 02:47:09;;;;;;;3.93;3.50;;;;;;;19.80;97.10;95665.84;4412573;32;20184;-66
2023/09/10 02:49:34;;;;;;;4.73;4.43;;;;;;;19.81;96.82;95669.31;4401156;32;20206;-66
2023/09/10 02:51:59;;;;;;;4.50;4.10;;;;;;;19.66;97.77;95672.75;4411067;32;20283;-66
2023/09/10 02:54:25;;;;;;;4.87;4.47;;;;;;;19.69;97.52;95667.47;4408121;32;20224;-66
2023/09/10 02:56:51;;;;;;;3.70;3.40;;;;;;;19.64;97.71;95667.72;4408323;32;20195;-66
2023/09/10 02:59:25;;;;;;;4.00;3.80;;;;;;;19.69;97.52;95664.78;4410498;32;20229;-66
2023/09/10 03:01:50;;;;;;;5.13;4.83;;;;;;;19.69;97.32;95669.38;4413338;32;20184;-65
2023/09/10 03:04:16;;;;;;;3.73;3.53;;;;;;;19.59;97.93;95665.25;4406018;32;20192;-66
2023/09/10 03:06:46;;;;;;;3.73;3.53;;;;;;;19.52;98.22;95667.78;4406750;32;20206;-66
2023/09/10 03:09:13;;;;;;;3.20;3.10;;;;;;;19.51;98.28;95675.06;4417857;32;20233;-66
2023/09/10 03:11:38;;;;;;;3.90;3.70;;;;;;;19.52;98.10;95681.22;4414370;32;20259;-66
2023/09/10 03:14:07;;;;;;;3.87;3.57;;;;;;;19.51;98.29;95668.91;4411464;32;20176;-66
2023/09/10 03:16:38;;;;;;;3.87;3.57;;;;;;;19.53;97.79;95677.41;4401941;32;20221;-66
2023/09/10 03:19:04;;;;;;;8.60;3.90;;;;;;;19.65;96.63;95677.34;4397432;32;20195;-66
2023/09/10 03:21:30;;;;;;;5.20;4.73;;;;;;;19.51;97.34;95675.06;4396897;32;20263;-66
2023/09/10 03:23:56;;;;;;;3.93;3.73;;;;;;;19.55;97.28;95677.81;4402821;32;20204;-66
2023/09/10 03:26:22;;;;;;;3.33;3.13;;;;;;;19.49;97.71;95677.28;4413243;32;20215;-66
2023/09/10 03:28:47;;;;;;;4.43;4.00;;;;;;;19.60;96.50;95676.81;4409540;32;20188;-66
2023/09/10 03:31:13;;;;;;;4.40;4.00;;;;;;;19.61;96.81;95673.00;4404080;32;20214;-66
2023/09/10 03:33:40;;;;;;;3.43;3.23;;;;;;;19.58;96.68;95673.69;4403829;32;20187;-66
2023/09/10 03:36:09;;;;;;;3.80;3.60;;;;;;;19.54;96.71;95668.97;4416796;32;20202;-66
2023/09/10 03:38:34;;;;;;;3.27;3.07;;;;;;;19.44;97.24;95663.28;4403381;32;20188;-66
2023/09/10 03:41:00;;;;;;;3.67;3.47;;;;;;;19.45;96.89;95662.16;4404448;32;20298;-66
2023/09/10 03:43:25;;;;;;;3.10;3.00;;;;;;;19.35;97.55;95668.78;4398111;32;20220;-66
2023/09/10 03:45:50;;;;;;;3.57;3.37;;;;;;;19.28;97.64;95668.59;4410114;32;20192;-66
2023/09/10 03:48:16;;;;;;;4.30;4.10;;;;;;;19.35;97.56;95676.06;4410515;32;20202;-66
2023/09/10 03:50:41;;;;;;;4.00;3.80;;;;;;;19.34;97.14;95666.41;4415581;32;20217;-66
2023/09/10 03:53:07;;;;;;;3.80;3.50;;;;;;;19.32;97.07;95668.69;4419599;32;20211;-66
2023/09/10 03:55:32;;;;;;;3.43;3.23;;;;;;;19.38;97.05;95662.72;4420840;32;20222;-66
2023/09/10 03:57:58;;;;;;;4.47;4.13;;;;;;;19.55;96.06;95667.06;4409088;32;20192;-66
2023/09/10 04:00:23;;;;;;;3.20;3.10;;;;;;;19.58;95.68;95671.75;4415914;32;20202;-66
2023/09/10 04:02:50;;;;;;;4.13;3.77;;;;;;;19.48;96.36;95664.16;4403387;32;20283;-66
2023/09/10 04:05:16;;;;;;;4.00;3.70;;;;;;;19.63;95.57;95668.06;4410301;32;20198;-66
2023/09/10 04:07:42;;;;;;;3.13;3.03;;;;;;;19.61;95.44;95671.09;4403413;32;20218;-66
2023/09/10 04:10:08;;;;;;;2.67;2.57;;;;;;;19.68;94.88;95668.59;4416529;32;20180;-66
2023/09/10 04:12:34;;;;;;;3.77;3.53;;;;;;;19.62;95.40;95669.19;4416562;32;20180;-66
2023/09/10 04:14:59;;;;;;;2.37;2.27;;;;;;;19.59;95.24;95672.56;4410817;32;20292;-66
2023/09/10 04:17:28;;;;;;;3.87;3.67;;;;;;;19.45;95.88;95667.53;4406801;32;20206;-66
2023/09/10 04:19:54;;;;;;;3.20;3.10;;;;;;;19.45;96.04;95679.06;4402702;32;20278;-66
2023/09/10 04:22:19;;;;;;;3.60;3.40;;;;;;;19.44;96.05;95679.41;4412685;32;20180;-66
2023/09/10 04:24:45;;;;;;;3.97;3.73;;;;;;;19.46;95.80;95685.25;4402963;32;20176;-66
2023/09/10 04:27:10;;;;;;;3.40;3.20;;;;;;;19.45;95.90;95689.84;4402155;32;20226;-66
2023/09/10 04:29:35;;;;;;;3.30;3.10;;;;;;;19.42;96.03;95692.44;4413579;32;20199;-66
2023/09/10 04:32:02;;;;;;;3.20;3.03;;;;;;;19.52;95.42;95692.00;4407199;32;20195;-66
2023/09/10 04:34:28;;;;;;;3.23;3.13;;;;;;;19.45;95.63;95689.06;4408459;32;20188;-66
2023/09/10 04:36:53;;;;;;;2.87;2.77;;;;;;;19.33;96.28;95691.78;4388225;32;20316;-66
2023/09/10 04:39:19;;;;;;;5.67;4.67;;;;;;;19.39;95.88;95688.50;4405683;32;20219;-66
2023/09/10 04:41:44;;;;;;;4.00;3.80;;;;;;;19.35;96.36;95690.31;4407855;32;20168;-66
2023/09/10 04:44:10;;;;;;;3.80;3.60;;;;;;;19.32;96.04;95677.56;4414762;32;20205;-66
2023/09/10 04:46:35;;;;;;;3.03;2.93;;;;;;;19.31;96.44;95680.59;4401645;32;20220;-66
2023/09/10 04:49:00;;;;;;;3.43;3.13;;;;;;;19.32;96.45;95682.94;4406087;32;20209;-66
2023/09/10 04:51:26;;;;;;;3.27;3.17;;;;;;;19.29;96.67;95690.91;4399217;32;20238;-66
2023/09/10 04:53:51;;;;;;;2.97;2.77;;;;;;;19.32;96.35;95693.69;4412596;32;20233;-66
2023/09/10 04:56:16;;;;;;;2.77;2.67;;;;;;;19.40;95.40;95697.34;4397419;32;20191;-66
2023/09/10 04:58:42;;;;;;;3.13;3.03;;;;;;;19.32;96.03;95690.22;4404484;32;20198;-66
2023/09/10 05:01:07;;;;;;;4.13;3.93;;;;;;;19.31;96.11;95692.13;4406659;32;20184;-66
2023/09/10 05:03:33;;;;;;;4.30;2.67;;;;;;;19.36;95.89;95701.84;4427163;32;20176;-66
2023/09/10 05:05:59;;;;;;;3.50;3.30;;;;;;;19.33;95.70;95697.16;4408856;32;20223;-66
2023/09/10 05:08:25;;;;;;;2.77;2.67;;;;;;;19.27;96.16;95706.59;4416642;32;20260;-66
2023/09/10 05:10:51;;;;;;;3.97;3.60;;;;;;;19.22;96.53;95704.91;4402624;32;20180;-66
2023/09/10 05:13:16;;;;;;;3.50;3.30;;;;;;;19.18;96.67;95710.19;4403472;32;20290;-66
2023/09/10 05:15:41;;;;;;;3.77;3.57;;;;;;;19.30;95.92;95705.91;4406870;32;20183;-66
2023/09/10 05:18:06;;;;;;;4.07;3.77;;;;;;;19.27;95.95;95712.75;4403033;32;20177;-66
2023/09/10 05:20:33;;;;;;;3.60;3.43;;;;;;;19.33;95.53;95716.75;4404830;32;20181;-66
2023/09/10 05:23:00;;;;;;;3.40;3.20;;;;;;;19.32;95.80;95717.13;4404663;32;20216;-66
2023/09/10 05:25:25;;;;;;;3.93;3.73;;;;;;;19.35;95.80;95716.41;4404448;32;20191;-66
2023/09/10 05:27:50;;;;;;;4.43;4.17;;;;;;;19.41;95.19;95720.47;4404050;32;20184;-66
2023/09/10 05:30:16;;;;;;;3.60;3.40;;;;;;;19.45;95.40;95710.59;4406565;32;20192;-66
2023/09/10 05:32:41;;;;;;;3.47;3.33;;;;;;;19.44;95.44;95723.25;4410127;32;20191;-66
2023/09/10 05:35:07;;;;;;;4.43;4.13;;;;;;;19.39;95.89;95718.09;4414654;32;20188;-66
2023/09/10 05:37:32;;;;;;;3.53;3.33;;;;;;;19.46;95.63;95717.53;4410708;32;20211;-66
2023/09/10 05:39:58;;;;;;;3.23;3.03;;;;;;;19.52;95.05;95724.28;4407587;32;20202;-66
2023/09/10 05:42:23;;;;;;;3.87;3.67;;;;;;;19.38;96.23;95719.22;4403636;32;20219;-66
2023/09/10 05:44:54;;;;;;;3.20;3.10;;;;;;;19.28;97.14;95721.59;4406149;32;20230;-66
2023/09/10 05:47:20;;;;;;;4.23;4.03;;;;;;;19.37;96.66;95722.25;4405613;32;20184;-66
2023/09/10 05:49:51;;;;;;;3.17;3.07;;;;;;;19.40;96.41;95708.13;4403772;32;20214;-66
2023/09/10 05:52:16;;;;;;;3.27;3.13;;;;;;;19.43;96.28;95715.53;4405829;32;20223;-66
2023/09/10 05:54:42;;;;;;;3.40;3.10;;;;;;;19.50;95.85;95711.16;4410344;32;20210;-66
2023/09/10 05:57:07;;;;;;;3.10;2.90;;;;;;;19.47;96.55;95716.41;4407766;32;20180;-66
2023/09/10 05:59:32;;;;;;;4.33;3.67;;;;;;;19.45;96.85;95715.97;4407425;32;20222;-66
2023/09/10 06:01:58;;;;;;;3.17;2.93;;;;;;;19.56;96.01;95720.56;4402724;32;20175;-66
2023/09/10 06:04:23;;;;;;;3.23;3.03;;;;;;;19.51;96.69;95720.03;4409762;32;20188;-66
2023/09/10 06:06:48;;;;;;;3.20;3.00;;;;;;;19.63;95.74;95725.37;4405800;32;20329;-66
2023/09/10 06:09:14;;;;;;;3.10;3.00;;;;;;;19.64;95.53;95726.16;4410079;32;20277;-66
2023/09/10 06:11:39;;;;;;;4.77;4.47;;;;;;;19.68;95.44;95721.66;4405305;32;20223;-66
2023/09/10 06:14:04;;;;;;;2.77;2.67;;;;;;;19.72;95.69;95734.09;4415118;32;20215;-66
2023/09/10 06:16:30;;;;;;;3.53;3.33;;;;;;;19.72;95.58;95727.94;4413542;32;20266;-66
2023/09/10 06:18:55;;;;;;;3.10;3.00;;;;;;;19.76;95.01;95728.81;4422848;32;20255;-66
2023/09/10 06:21:20;;;;;;;4.00;3.80;;;;;;;19.73;96.67;95729.50;4404981;32;20314;-66
2023/09/10 06:23:46;;;;;;;3.70;3.50;;;;;;;19.76;96.37;95729.59;4399698;32;20194;-66
2023/09/10 06:26:12;;;;;;;4.27;4.07;;;;;;;19.80;95.99;95735.84;4406280;32;20192;-66
2023/09/10 06:28:38;;;;;;;3.33;3.23;;;;;;;19.82;95.86;95725.53;4409107;32;20179;-66
2023/09/10 06:31:05;;;;;;;11.47;3.50;;;;;;;19.89;96.45;95733.03;4401204;32;20215;-66
2023/09/10 06:33:31;;;;;;;4.80;2.83;;;;;;;19.89;96.71;95736.50;4417415;32;20189;-66
2023/09/10 06:35:56;;;;;;;7.40;4.27;;;;;;;19.93;96.43;95738.53;4421721;32;20195;-66
2023/09/10 06:38:21;;;;;;;4.17;3.87;;;;;;;19.98;96.01;95735.56;4417334;32;20229;-66
2023/09/10 06:40:48;;;;;;;3.73;3.53;;;;;;;20.00;96.30;95733.31;4403971;32;20180;-66
2023/09/10 06:43:13;;;;;;;3.77;3.57;;;;;;;20.02;96.04;95731.84;4425167;32;20228;-66
2023/09/10 06:45:41;;;;;;;3.23;3.13;;;;;;;20.04;96.09;95728.81;4410275;32;20203;-66
2023/09/10 06:48:06;;;;;;;2.97;2.87;;;;;;;20.07;96.02;95726.22;4405448;32;20210;-66
2023/09/10 06:50:32;;;;;;;4.70;4.40;;;;;;;20.11;95.99;95729.03;4411198;32;20223;-66
2023/09/10 06:52:57;;;;;;;5.40;3.70;;;;;;;20.13;95.96;95734.84;4399355;32;20259;-66
2023/09/10 06:55:23;;;;;;;5.13;3.77;;;;;;;20.14;95.60;95731.03;4407680;32;20188;-66
2023/09/10 06:57:49;;;;;;;2.77;2.67;;;;;;;20.17;95.29;95730.31;4400077;32;20492;-66
2023/09/10 07:00:15;;;;;;;3.37;3.20;;;;;;;20.24;95.14;95741.28;4407317;32;20176;-66
2023/09/10 07:02:40;;;;;;;3.57;3.37;;;;;;;20.29;95.71;95735.66;4406679;32;20180;-66
2023/09/10 07:05:05;;;;;;;3.63;3.43;;;;;;;20.29;95.62;95735.66;4401844;32;20188;-66
2023/09/10 07:07:31;;;;;;;3.20;3.10;;;;;;;20.35;95.30;95739.69;4421162;32;20180;-66
2023/09/10 07:09:56;;;;;;;3.70;3.60;;;;;;;20.38;95.24;95732.81;4405524;32;20184;-66
2023/09/10 07:12:21;;;;;;;3.73;3.37;;;;;;;20.41;95.40;95738.31;4406361;32;20192;-66
2023/09/10 07:14:49;;;;;;;4.93;4.53;;;;;;;20.47;94.94;95736.94;4412957;32;20198;-66
2023/09/10 07:17:14;;;;;;;3.13;3.00;;;;;;;20.55;94.63;95733.31;4414592;32;20184;-66
2023/09/10 07:19:40;;;;;;;4.83;4.53;;;;;;;20.62;94.50;95737.28;4400968;32;20206;-66
2023/09/10 07:22:06;;;;;;;5.17;4.77;;;;;;;20.64;94.12;95735.03;4407369;32;20233;-66
2023/09/10 07:24:31;;;;;;;3.47;3.33;;;;;;;20.74;93.90;95739.94;4413455;32;20290;-66
2023/09/10 07:26:58;;;;;;;3.17;3.03;;;;;;;20.82;93.57;95742.44;4417207;32;20241;-66
2023/09/10 07:29:24;;;;;;;3.63;3.33;;;;;;;20.88;93.42;95741.03;4407877;32;20180;-66
2023/09/10 07:31:49;;;;;;;3.20;3.00;;;;;;;20.95;92.96;95736.97;4401708;32;20234;-66
2023/09/10 07:34:15;;;;;;;2.97;2.87;;;;;;;20.95;92.65;95737.75;4420550;32;20227;-66
2023/09/10 07:36:40;;;;;;;3.40;3.20;;;;;;;20.92;93.29;95736.53;4406467;32;20202;-66
2023/09/10 07:39:06;;;;;;;2.70;2.60;;;;;;;20.99;93.47;95737.84;4402755;32;20202;-66
2023/09/10 07:41:33;;;;;;;2.83;2.73;;;;;;;21.01;92.97;95741.72;4408165;32;20195;-66
2023/09/10 07:44:01;;;;;;;2.70;2.50;;;;;;;21.08;92.54;95731.09;4411718;32;20188;-66
2023/09/10 07:46:29;;;;;;;2.77;2.67;;;;;;;21.19;92.21;95736.78;4404732;32;20188;-66
2023/09/10 07:48:54;;;;;;;3.80;3.50;;;;;;;21.22;91.78;95734.16;4405705;32;20196;-66
2023/09/10 07:51:19;;;;;;;3.17;2.97;;;;;;;21.25;91.60;95729.97;4410115;32;20192;-66
2023/09/10 07:53:45;;;;;;;2.70;2.50;;;;;;;21.30;91.60;95737.03;4400308;32;20258;-66
2023/09/10 07:56:10;;;;;;;3.60;3.40;;;;;;;21.31;91.67;95735.91;4408792;32;20176;-66
2023/09/10 07:58:35;;;;;;;3.30;3.10;;;;;;;21.34;91.84;95737.91;4408638;32;20215;-66
2023/09/10 08:01:01;;;;;;;3.17;3.07;;;;;;;21.47;90.83;95731.22;4408148;32;20241;-66
2023/09/10 08:03:26;;;;;;;3.23;3.13;;;;;;;21.46;90.64;95730.44;4409809;32;20188;-66
2023/09/10 08:05:52;;;;;;;2.57;2.47;;;;;;;21.61;90.19;95734.25;4406808;32;20188;-66
2023/09/10 08:08:17;;;;;;;3.60;3.40;;;;;;;21.74;89.02;95738.38;4401991;32;20290;-66
2023/09/10 08:10:45;;;;;;;3.57;3.47;;;;;;;21.73;89.06;95742.22;4401070;32;20180;-66
2023/09/10 08:13:14;;;;;;;3.63;3.43;;;;;;;21.86;88.65;95735.53;4399674;32;20224;-67
2023/09/10 08:15:40;;;;;;;3.27;3.17;;;;;;;21.86;88.69;95734.75;4417349;32;20168;-66
2023/09/10 08:18:11;;;;;;;3.03;2.87;;;;;;;21.85;88.83;95731.28;4416166;32;20188;-66
2023/09/10 08:20:40;;;;;;;3.50;3.30;;;;;;;21.86;89.02;95732.06;4406764;32;20188;-66
2023/09/10 08:23:07;;;;;;;4.17;3.77;;;;;;;21.93;88.58;95735.69;4401939;32;20188;-66
2023/09/10 08:25:33;;;;;;;2.37;2.27;;;;;;;22.02;87.78;95727.41;4406248;32;20184;-66
2023/09/10 08:28:01;;;;;;;2.67;2.57;;;;;;;22.06;87.03;95732.87;4417054;32;20191;-66
2023/09/10 08:30:27;;;;;;;3.23;3.03;;;;;;;22.20;85.79;95738.56;4402088;32;20208;-66
2023/09/10 08:32:53;;;;;;;2.03;1.93;;;;;;;22.42;84.12;95735.13;4408316;32;20175;-66
2023/09/10 08:35:20;;;;;;;2.63;2.53;;;;;;;22.44;83.98;95735.53;4400636;32;20180;-66
2023/09/10 08:37:45;;;;;;;3.07;2.97;;;;;;;22.56;83.32;95740.00;4408234;32;20188;-65
2023/09/10 08:40:11;;;;;;;2.73;2.63;;;;;;;22.55;83.28;95728.38;4407825;32;20203;-66
2023/09/10 08:43:05;;;;;;;2.73;2.63;;;;;;;22.56;83.31;95734.59;4407483;32;20196;-66
2023/09/10 08:45:32;;;;;;;2.57;2.37;;;;;;;22.60;83.02;95736.22;4396857;32;20317;-66
2023/09/10 08:47:57;;;;;;;2.60;2.50;;;;;;;22.75;79.87;95741.88;4416348;32;20207;-65
2023/09/10 08:50:24;;;;;;;3.67;3.37;;;;;;;22.82;80.76;95736.59;4408600;32;20264;-66
2023/09/10 08:52:50;;;;;;;2.27;2.17;;;;;;;22.89;79.79;95737.50;4403631;32;20202;-65
2023/09/10 08:55:16;;;;;;;1.73;1.63;;;;;;;22.92;79.24;95738.69;4424124;32;20248;-66
2023/09/10 08:57:43;;;;;;;2.43;2.23;;;;;;;22.98;79.18;95733.75;4414771;32;20191;-66
2023/09/10 09:00:13;;;;;;;1.70;1.70;;;;;;;22.99;79.91;95733.41;4404331;32;20240;-66
2023/09/10 09:02:40;;;;;;;2.07;2.03;;;;;;;23.05;79.60;95734.66;4401808;32;20188;-66
2023/09/10 09:05:06;;;;;;;1.63;1.63;;;;;;;23.19;78.83;95729.47;4405875;32;20196;-65
2023/09/10 09:07:42;;;;;;;2.30;2.20;;;;;;;23.22;79.26;95728.75;4399378;32;20224;-65
2023/09/10 09:10:16;;;;;;;3.60;2.63;;;;;;;23.18;79.58;95722.47;4396835;32;20180;-66
2023/09/10 09:12:42;;;;;;;2.57;2.43;;;;;;;23.26;79.38;95724.16;4403889;32;20258;-65
2023/09/10 09:15:09;;;;;;;2.60;2.50;;;;;;;23.43;76.75;95727.50;4407604;32;20192;-65
2023/09/10 09:17:37;;;;;;;1.97;1.97;;;;;;;23.54;74.90;95725.72;4416514;32;20229;-65
2023/09/10 09:20:04;;;;;;;2.30;2.17;;;;;;;23.58;74.73;95727.34;4396965;32;20239;-66
2023/09/10 09:22:31;;;;;;;1.70;1.70;;;;;;;23.62;74.47;95725.47;4402585;32;20243;-65
2023/09/10 09:24:57;;;;;;;3.57;2.73;;;;;;;23.77;73.81;95726.44;4408117;32;20205;-65
2023/09/10 09:27:25;;;;;;;2.37;2.27;;;;;;;24.15;72.03;95727.25;4398332;32;20227;-66
2023/09/10 09:29:51;;;;;;;2.53;2.43;;;;;;;24.08;72.87;95719.06;4402651;32;20261;-66
2023/09/10 09:32:18;;;;;;;2.43;2.33;;;;;;;24.10;72.94;95722.97;4403539;32;20284;-66
2023/09/10 09:34:43;;;;;;;3.07;2.97;;;;;;;24.16;72.57;95720.69;4406872;32;20235;-66
2023/09/10 09:37:08;;;;;;;2.70;2.50;;;;;;;24.13;72.29;95716.00;4428776;32;20198;-66
2023/09/10 09:39:34;;;;;;;3.43;2.43;;;;;;;24.24;71.92;95722.38;4402285;32;20233;-66
2023/09/10 09:42:00;;;;;;;1.77;1.73;;;;;;;24.19;72.91;95722.66;4416478;32;20243;-65
2023/09/10 09:44:26;;;;;;;2.53;2.43;;;;;;;24.28;71.33;95717.75;4410252;32;20199;-65
2023/09/10 09:46:57;;;;;;;4.03;2.53;;;;;;;24.39;69.61;95717.84;4417605;32;20179;-66
2023/09/10 09:49:24;;;;;;;2.13;2.03;;;;;;;24.52;68.40;95722.66;4402299;32;20185;-66
2023/09/10 09:51:49;;;;;;;1.30;1.30;;;;;;;24.52;69.05;95711.03;4404054;32;20203;-66
2023/09/10 09:54:15;;;;;;;2.37;2.27;;;;;;;24.46;70.08;95713.28;4405385;32;20176;-66
2023/09/10 09:56:43;;;;;;;1.60;1.60;;;;;;;24.36;71.17;95713.94;4407283;32;20179;-67
2023/09/10 09:59:10;;;;;;;1.73;1.73;;;;;;;24.54;68.71;95706.78;4408390;32;20225;-65
2023/09/10 10:01:36;;;;;;;1.63;1.63;;;;;;;24.72;66.51;95711.59;4405328;32;20184;-65
2023/09/10 10:04:03;;;;;;;1.83;1.83;;;;;;;24.78;66.96;95710.87;4395341;32;20211;-66
2023/09/10 10:06:28;;;;;;;2.27;2.17;;;;;;;24.87;65.58;95708.63;4405920;32;20175;-65
2023/09/10 10:08:53;;;;;;;1.97;1.87;;;;;;;25.12;63.56;95713.50;4412031;32;20200;-65
2023/09/10 10:11:31;;;;;;;1.50;1.50;;;;;;;25.08;64.08;95704.53;4418282;32;20188;-66
2023/09/10 10:14:01;;;;;;;1.70;1.63;;;;;;;24.98;62.29;95700.59;4410669;32;20179;-66
2023/09/10 10:16:28;;;;;;;2.63;2.07;;;;;;;24.86;63.04;95703.56;4402086;32;20202;-65
2023/09/10 10:18:55;;;;;;;1.77;1.67;;;;;;;25.03;64.33;95702.19;4406987;32;20229;-66
2023/09/10 10:21:23;;;;;;;1.50;1.40;;;;;;;24.93;65.17;95703.63;4403551;32;20241;-66
2023/09/10 10:23:51;;;;;;;2.63;1.90;;;;;;;25.10;62.43;95700.31;4396962;32;20176;-66
2023/09/10 10:26:16;;;;;;;2.10;2.00;;;;;;;25.28;62.79;95708.56;4419216;32;20193;-66
2023/09/10 10:28:45;;;;;;;1.57;1.57;;;;;;;25.40;62.60;95704.75;4403218;32;20184;-66
2023/09/10 10:31:18;;;;;;;1.50;1.50;;;;;;;25.32;61.79;95702.00;4410130;32;20191;-67
2023/09/10 10:34:02;;;;;;;1.53;1.53;;;;;;;25.24;62.11;95696.88;4422098;32;20184;-66
2023/09/10 10:36:50;;;;;;;1.47;1.47;;;;;;;25.26;62.22;95700.78;4407276;32;20180;-66
2023/09/10 10:39:19;;;;;;;1.70;1.70;;;;;;;25.21;63.07;95697.63;4406613;32;20172;-65
2023/09/10 10:41:50;;;;;;;1.77;1.67;;;;;;;25.06;63.53;95687.84;4402182;32;20188;-65
2023/09/10 10:44:19;;;;;;;1.53;1.53;;;;;;;25.22;60.97;95697.25;4412821;32;20199;-66
2023/09/10 10:46:44;;;;;;;1.77;1.67;;;;;;;25.42;59.35;95691.56;4408272;32;20240;-66
2023/09/10 10:49:10;;;;;;;1.60;1.53;;;;;;;25.38;59.77;95680.66;4406396;32;20180;-66
2023/09/10 10:51:42;;;;;;;4.67;4.27;;;;;;;25.41;60.66;95690.00;4410516;32;20180;-66
2023/09/10 10:54:08;;;;;;;2.33;2.23;;;;;;;25.42;61.31;95683.41;4419655;32;20172;-65
2023/09/10 10:56:34;;;;;;;1.50;1.50;;;;;;;25.36;61.20;95690.38;4425595;32;20243;-65
2023/09/10 10:59:00;;;;;;;1.30;1.20;;;;;;;25.40;60.71;95689.22;4403083;32;20180;-66
2023/09/10 11:01:27;;;;;;;1.43;1.43;;;;;;;25.60;61.21;95676.12;4399713;32;20215;-65
2023/09/10 11:03:53;;;;;;;0.77;0.77;;;;;;;25.61;61.03;95688.56;4404875;32;20211;-66
2023/09/10 11:06:18;;;;;;;1.73;1.63;;;;;;;25.54;60.24;95686.59;4419905;32;20228;-66
2023/09/10 11:08:48;;;;;;;0.97;0.97;;;;;;;25.63;60.53;95672.69;4401054;32;20188;-66
2023/09/10 11:11:36;;;;;;;1.63;1.57;;;;;;;25.49;61.60;95686.97;4415451;32;20183;-67
2023/09/10 11:14:05;;;;;;;2.40;2.20;;;;;;;25.85;58.51;95681.69;4402195;32;20183;-67
2023/09/10 11:16:35;;;;;;;1.23;1.13;;;;;;;25.91;58.44;95674.75;4401871;32;20251;-67
2023/09/10 11:19:01;;;;;;;1.97;1.90;;;;;;;25.86;59.35;95678.59;4405106;32;20279;-67
2023/09/10 11:21:56;;;;;;;1.43;1.37;;;;;;;25.88;58.51;95675.50;4403760;32;20211;-67
2023/09/10 11:24:22;;;;;;;1.93;1.80;;;;;;;26.05;57.58;95677.50;4389006;32;20308;-67
2023/09/10 11:26:48;;;;;;;1.70;1.60;;;;;;;26.15;57.36;95673.25;4407695;32;20194;-67
2023/09/10 11:29:18;;;;;;;1.53;1.53;;;;;;;26.11;54.90;95672.47;4421390;32;20194;-67
2023/09/10 11:31:46;;;;;;;1.93;1.83;;;;;;;26.11;56.27;95667.03;4409273;32;20251;-67
2023/09/10 11:34:15;;;;;;;1.20;1.20;;;;;;;25.98;57.35;95664.66;4404901;32;20192;-67